Tiempo atmosférico en la estación meteorológica de Almudébar, Huesca (390 m.)



Fecha
DESCASC
Temp. máxima en grados centígrados (hora)
DESCASC
Temp. mínima en grados centígrados (hora)
DESCASC
Temp. media en grados centígrados
DESCASC
Racha de viento máxima en m/sg (hora)
DESCASC
Velocidad máxima media en intervalos de 10 minutos(hora)
DESCASC
Precipitaciones diarias en mm
DESCASC
Precipitaciones de 00:00 a 06:00 en mm
DESCASC
Precipitaciones de 06:00 a 12:00 en mm
DESCASC
Precipitaciones de 12:00 a 18:00 en mm
DESCASC
Precipitaciones de 18:00 a 24:00 en mm
DESCASC

Gráficas

Temp. máximas Temp. mínimas Temp. medias Precipitaciones Rachas de viento máximas Velocidades máximas media en intervalos de 10 minutos

Datos horarios

Fecha y hora oficial Temperatura (ºC) Velocidad del viento (km/h) Dirección del viento Racha (km/h) Dirección de racha Precipitación (mm) Presión (hPa) Tendencia (hPa) Humedad (%)
2019-02-22 23:00:00 7.9 2 Oeste 8 Oeste 0 -- -- 66
2019-02-22 22:00:00 9.5 4 Oeste 14 Noroeste 0 -- -- 59
2019-02-22 21:00:00 10.4 10 Noroeste 13 Noroeste 0 -- -- 56
2019-02-22 20:00:00 12.7 7 Noroeste 14 Oeste 0 -- -- 46
2019-02-22 19:00:00 15.7 11 Sudoeste 17 Oeste 0 -- -- 37
2019-02-22 18:00:00 18.8 8 Oeste 28 Oeste 0 -- -- 35
2019-02-22 17:00:00 19.8 13 Oeste 26 Oeste 0 -- -- 37
2019-02-22 16:00:00 19.5 14 Oeste 31 Oeste 0 -- -- 39
2019-02-22 15:00:00 19 19 Oeste 32 Oeste 0 -- -- 38
2019-02-22 14:00:00 17.7 13 Oeste 30 Oeste 0 -- -- 42
2019-02-22 13:00:00 16.2 14 Oeste 28 Oeste 0 -- -- 52
2019-02-22 12:00:00 13.2 15 Oeste 26 Oeste 0 -- -- 60
2019-02-22 11:00:00 10.9 11 Oeste 21 Oeste 0 -- -- 68
2019-02-22 10:00:00 6.9 3 Noroeste 8 Oeste 0 -- -- 81
2019-02-22 09:00:00 2.9 3 Oeste 6 Sudoeste 0 -- -- 92
2019-02-22 08:00:00 0.7 2 Noroeste 10 Oeste 0 -- -- 92
2019-02-22 07:00:00 0.8 8 Oeste 10 Oeste 0 -- -- 93
2019-02-22 06:00:00 0.9 4 Noroeste 6 Oeste 0 -- -- 92
2019-02-22 05:00:00 1.2 3 Noroeste 5 Noroeste 0 -- -- 93
2019-02-22 04:00:00 1.7 5 Noroeste 8 Noroeste 0 -- -- 93
2019-02-22 03:00:00 1.4 2 Norte 3 Nordeste 0 -- -- 91
2019-02-22 02:00:00 1.8 3 Noroeste 7 Nordeste 0 -- -- 90
2019-02-22 01:00:00 2.6 4 Nordeste 7 Noroeste 0 -- -- 89
2019-02-22 00:00:00 3.2 3 Oeste 6 Nordeste 0 -- -- 85
2019-02-21 23:00:00 4.2 0 Calma 4 Nordeste 0 -- -- 83
2019-02-21 22:00:00 5.4 3 Norte 6 Nordeste 0 -- -- 81
2019-02-21 21:00:00 6.8 5 Nordeste 11 Nordeste 0 -- -- 74
2019-02-21 20:00:00 9.1 4 Nordeste 10 Nordeste 0 -- -- 68
2019-02-21 19:00:00 13.3 8 Este 10 Este 0 -- -- 60
2019-02-21 18:00:00 17 3 Este 6 Sudeste 0 -- -- 51
2019-02-21 17:00:00 17.2 0 Calma 10 Este 0 -- -- 48
2019-02-21 16:00:00 17.4 3 Sudeste 10 Este 0 -- -- 48
2019-02-21 15:00:00 16.1 3 Norte 13 Este 0 -- -- 46
2019-02-21 14:00:00 15.4 3 Sudeste 13 Este 0 -- -- 53
2019-02-21 13:00:00 14.1 6 Sudeste 12 Sudeste 0 -- -- 59
2019-02-21 12:00:00 12 5 Sudeste 10 Sudeste 0 -- -- 71
2019-02-21 11:00:00 9.6 3 Este 6 Nordeste 0 -- -- 80
2019-02-21 10:00:00 5.2 0 Calma 4 Sudoeste 0 -- -- 94
2019-02-21 09:00:00 1.3 0 Calma 8 Nordeste 0 -- -- 95
2019-02-21 08:00:00 1.3 7 Nordeste 8 Nordeste 0 -- -- 95
2019-02-21 07:00:00 0.8 0 Calma 8 Este 0 -- -- 94
2019-02-21 06:00:00 1.4 4 Este 10 Nordeste 0 -- -- 93
2019-02-21 05:00:00 2 6 Nordeste 8 Nordeste 0 -- -- 93
2019-02-21 04:00:00 2.1 0 Calma 4 Este 0 -- -- 93
2019-02-21 03:00:00 2.4 2 Nordeste 4 Nordeste 0 -- -- 92
2019-02-21 02:00:00 2.9 2 Nordeste 5 Nordeste 0 -- -- 92
2019-02-21 01:00:00 3.4 0 Calma 6 Nordeste 0 -- -- 88
2019-02-21 00:00:00 4.2 4 Este 17 Nordeste 0 -- -- 88
2019-02-20 23:00:00 5.1 13 Nordeste 15 Este 0 -- -- 84
2019-02-20 22:00:00 6.2 13 Este 15 Este 0 -- -- 81
2019-02-20 21:00:00 6.5 6 Este 13 Nordeste 0 -- -- 78
2019-02-20 20:00:00 8 8 Nordeste 12 Nordeste 0 -- -- 73
2019-02-20 19:00:00 10.2 8 Este 12 Este 0 -- -- 67
2019-02-20 18:00:00 12.9 9 Este 14 Este 0 -- -- 62
2019-02-20 17:00:00 14.1 9 Este 15 Sudeste 0 -- -- 57
2019-02-20 16:00:00 14.1 9 Este 17 Sudeste 0 -- -- 55
2019-02-20 15:00:00 13.8 8 Sudeste 19 Este 0 -- -- 56
2019-02-20 14:00:00 12.7 12 Sudeste 21 Sudeste 0 -- -- 63
2019-02-20 13:00:00 11.5 11 Sudeste 20 Este 0 -- -- 69
2019-02-20 12:00:00 10.1 9 Sudeste 17 Sudeste 0 -- -- 76
2019-02-20 11:00:00 8.5 4 Sudeste 8 Sudeste 0 -- -- 85
2019-02-20 10:00:00 4.4 2 Sudeste 4 Sudoeste 0 -- -- 96
2019-02-20 09:00:00 2.1 4 Nordeste 6 Nordeste 0 -- -- 96
2019-02-20 08:00:00 -0.1 0 Calma 4 Noroeste 0 -- -- 95
2019-02-20 07:00:00 0.6 2 Noroeste 3 Noroeste 0 -- -- 95
2019-02-20 06:00:00 0.9 2 Norte 2 Norte 0 -- -- 95
2019-02-20 05:00:00 0.8 0 Calma 9 Este 0 -- -- 91
2019-02-20 04:00:00 2 4 Este 9 Este 0 -- -- 90
2019-02-20 03:00:00 2.4 2 Este 14 Este 0 -- -- 90
2019-02-20 02:00:00 3 8 Nordeste 16 Nordeste 0 -- -- 88
2019-02-20 01:00:00 4 13 Nordeste 18 Nordeste 0 -- -- 86
2019-02-20 00:00:00 4.2 4 Este 11 Nordeste 0 -- -- 86
2019-02-19 23:00:00 4.8 7 Nordeste 10 Nordeste 0 -- -- 85
2019-02-19 22:00:00 4.4 4 Nordeste 8 Nordeste 0 -- -- 84
2019-02-19 21:00:00 5.5 4 Este 10 Este 0 -- -- 81
2019-02-19 20:00:00 7.5 7 Nordeste 13 Este 0 -- -- 72
2019-02-19 19:00:00 9.8 9 Este 14 Este 0 -- -- 64
2019-02-19 18:00:00 12.2 12 Este 18 Este 0 -- -- 59
2019-02-19 17:00:00 13.5 12 Sudeste 20 Este 0 -- -- 54
2019-02-19 16:00:00 13.8 12 Sudeste 21 Este 0 -- -- 49
2019-02-19 15:00:00 13.2 13 Sudeste 23 Sudeste 0 -- -- 56
2019-02-19 14:00:00 12.4 13 Este 19 Este 0 -- -- 64
2019-02-19 13:00:00 11.3 13 Sudeste 22 Sudeste 0 -- -- 70
2019-02-19 12:00:00 10.2 12 Sudeste 16 Este 0 -- -- 74
2019-02-19 11:00:00 8.3 6 Sudeste 10 Sudeste 0 -- -- 82
2019-02-19 10:00:00 6.2 3 Este 6 Nordeste 0 -- -- 92
2019-02-19 09:00:00 2.3 4 Nordeste 10 Nordeste 0 -- -- 95
2019-02-19 08:00:00 1 6 Nordeste 8 Norte 0 -- -- 95
2019-02-19 07:00:00 1.7 4 Nordeste 10 Nordeste 0 -- -- 94
2019-02-19 06:00:00 2.2 8 Nordeste 13 Nordeste 0 -- -- 94
2019-02-19 05:00:00 2.7 10 Este 12 Nordeste 0 -- -- 93
2019-02-19 04:00:00 3.2 6 Este 13 Este 0 -- -- 91
2019-02-19 03:00:00 3.7 8 Este 16 Este 0 -- -- 93
2019-02-19 02:00:00 3.3 7 Sudeste 15 Nordeste 0 -- -- 90
2019-02-19 01:00:00 4.1 13 Este 19 Este 0 -- -- 87
2019-02-19 00:00:00 5.7 7 Este 23 Este 0 -- -- 82
2019-02-18 23:00:00 5.8 12 Este 21 Este 0 -- -- 77
2019-02-18 22:00:00 7.1 14 Este 23 Este 0 -- -- 68
2019-02-18 21:00:00 7.7 13 Este 22 Nordeste 0 -- -- 66
2019-02-18 20:00:00 8 14 Nordeste 19 Nordeste 0 -- -- 67
2019-02-18 19:00:00 9.7 9 Nordeste 17 Este 0 -- -- 61
2019-02-18 18:00:00 12.5 13 Sudeste 28 Este 0 -- -- 54
2019-02-18 17:00:00 14.1 17 Este 31 Sudeste 0 -- -- 51
2019-02-18 16:00:00 14.4 21 Sudeste 29 Sudeste 0 -- -- 52
2019-02-18 15:00:00 14.1 18 Sudeste 30 Sudeste 0 -- -- 55
2019-02-18 14:00:00 12.7 22 Este 32 Este 0 -- -- 60
2019-02-18 13:00:00 11.6 21 Sudeste 33 Sudeste 0 -- -- 66
2019-02-18 12:00:00 10.2 24 Sudeste 32 Sudeste 0 -- -- 65
2019-02-18 11:00:00 9 21 Este 30 Este 0 -- -- 65
2019-02-18 10:00:00 6.3 6 Sudeste 9 Sudeste 0 -- -- 71
2019-02-18 09:00:00 2.9 3 Nordeste 13 Este 0 -- -- 76
2019-02-18 08:00:00 0.8 5 Este 15 Este 0 -- -- 83
2019-02-18 07:00:00 1.5 12 Este 21 Este 0 -- -- 83
2019-02-18 06:00:00 2.8 13 Este 29 Sudeste 0 -- -- 79
2019-02-18 05:00:00 3.2 23 Sudeste 28 Sudeste 0 -- -- 79
2019-02-18 04:00:00 3.6 18 Este 26 Este 0 -- -- 78
2019-02-18 03:00:00 3.5 19 Este 24 Este 0 -- -- 83
2019-02-18 02:00:00 3.8 15 Este 29 Este 0 -- -- 70
2019-02-18 01:00:00 5.8 22 Este 30 Este 0 -- -- 62
2019-02-18 00:00:00 4.5 10 Este 15 Este 0 -- -- 64
2019-02-17 23:00:00 5.8 5 Sudeste 23 Este 0 -- -- 61
2019-02-17 22:00:00 6.6 13 Nordeste 24 Nordeste 0 -- -- 59
2019-02-17 21:00:00 7.1 15 Nordeste 23 Este 0 -- -- 57
2019-02-17 20:00:00 8.9 16 Nordeste 22 Nordeste 0 -- -- 50
2019-02-17 19:00:00 11.1 12 Nordeste 27 Este 0 -- -- 45
2019-02-17 18:00:00 14.1 18 Este 31 Este 0 -- -- 39
2019-02-17 17:00:00 16 19 Sudeste 27 Sudeste 0 -- -- 32
2019-02-17 16:00:00 16.4 20 Sudeste 28 Sudeste 0 -- -- 27
2019-02-17 15:00:00 15.4 18 Sudeste 28 Este 0 -- -- 28
2019-02-17 14:00:00 14.9 15 Sudeste 27 Sudeste 0 -- -- 26
2019-02-17 13:00:00 13.7 19 Sudeste 26 Sudeste 0 -- -- 28
2019-02-17 12:00:00 12.3 15 Sudeste 18 Sudeste 0 -- -- 33
2019-02-17 11:00:00 9.6 6 Sudeste 9 Sudeste 0 -- -- 43
2019-02-17 10:00:00 6.3 6 Nordeste 10 Este 0 -- -- 49
2019-02-17 09:00:00 1.9 2 Este 14 Nordeste 0 -- -- 67
2019-02-17 08:00:00 1.5 11 Este 16 Este 0 -- -- 57
2019-02-17 07:00:00 0.9 4 Este 14 Este 0 -- -- 60
2019-02-17 06:00:00 0.4 10 Nordeste 12 Nordeste 0 -- -- 60
2019-02-17 05:00:00 1.5 8 Este 14 Este 0 -- -- 55
2019-02-17 04:00:00 2.3 14 Este 17 Este 0 -- -- 53
2019-02-17 03:00:00 2.9 13 Este 15 Este 0 -- -- 51
2019-02-17 02:00:00 2.1 8 Este 13 Este 0 -- -- 58
2019-02-17 01:00:00 3.5 11 Este 19 Nordeste 0 -- -- 56
2019-02-17 00:00:00 4.7 14 Este 21 Nordeste 0 -- -- 54
2019-02-16 23:00:00 5.2 10 Este 24 Nordeste 0 -- -- 58
2019-02-16 22:00:00 5.6 12 Nordeste 17 Nordeste 0 -- -- 59
2019-02-16 21:00:00 6.9 10 Este 19 Nordeste 0 -- -- 53
2019-02-16 20:00:00 8.6 14 Nordeste 24 Este 0 -- -- 46
2019-02-16 19:00:00 11 18 Este 24 Este 0 -- -- 39
2019-02-16 18:00:00 14 16 Este 29 Sudeste 0 -- -- 34
2019-02-16 17:00:00 15.8 22 Sudeste 37 Sudeste 0 -- -- 29
2019-02-16 16:00:00 16.3 26 Sudeste 37 Sudeste 0 -- -- 27
2019-02-16 15:00:00 15.8 23 Sudeste 35 Este 0 -- -- 34
2019-02-16 14:00:00 14.7 24 Sudeste 32 Sudeste 0 -- -- 41
2019-02-16 13:00:00 13.2 22 Sudeste 31 Este 0 -- -- 45
2019-02-16 12:00:00 10.9 18 Sudeste 26 Sudeste 0 -- -- 52
2019-02-16 11:00:00 8.8 10 Sudeste 13 Sudeste 0 -- -- 60
2019-02-16 10:00:00 4.2 4 Sudeste 5 Sudeste 0 -- -- 80
2019-02-16 09:00:00 -0.9 0 Calma 4 Nordeste 0 -- -- 90
2019-02-16 08:00:00 -2.4 0 Calma 3 Nordeste 0 -- -- 90
2019-02-16 07:00:00 -1.7 0 Calma 6 Nordeste 0 -- -- 86
2019-02-16 06:00:00 -1.5 0 Calma 5 Nordeste 0 -- -- 86
2019-02-16 05:00:00 -0.4 2 Norte 3 Noroeste 0 -- -- 88
2019-02-16 04:00:00 -0.3 0 Calma 6 Norte 0 -- -- 87
2019-02-16 03:00:00 -0.5 0 Calma 2 Nordeste 0 -- -- 88
2019-02-16 02:00:00 0.3 0 Calma 4 Norte 0 -- -- 90
2019-02-16 01:00:00 0.2 0 Calma 3 Nordeste 0 -- -- 88
2019-02-16 00:00:00 1.1 0 Calma 3 Sudoeste 0 -- -- 86
2019-02-15 23:00:00 2.1 0 Calma 3 Norte 0 -- -- 83
2019-02-15 22:00:00 3.5 0 Calma 4 Norte 0 -- -- 74
2019-02-15 21:00:00 4.9 2 Noroeste 5 Norte 0 -- -- 72
2019-02-15 20:00:00 6.9 6 Nordeste 9 Nordeste 0 -- -- 65
2019-02-15 19:00:00 9.9 6 Este 11 Sudeste 0 -- -- 57
2019-02-15 18:00:00 12.4 11 Sudeste 18 Sudeste 0 -- -- 49
2019-02-15 17:00:00 13.7 13 Sudeste 22 Sudeste 0 -- -- 44
2019-02-15 16:00:00 13.8 13 Sudeste 21 Sudeste 0 -- -- 51
2019-02-15 15:00:00 13.3 13 Sudeste 21 Sudeste 0 -- -- 52
2019-02-15 14:00:00 12.2 13 Sudeste 24 Este 0 -- -- 56
2019-02-15 13:00:00 10.1 8 Sudeste 17 Sudeste 0 -- -- 70
2019-02-15 12:00:00 7.2 7 Sudeste 13 Sur 0 -- -- 85
2019-02-15 11:00:00 4.3 5 Este 9 Sudeste 0 -- -- 97
2019-02-15 10:00:00 2 5 Este 7 Este 0 -- -- 96
2019-02-15 09:00:00 -0.7 2 Nordeste 5 Sur 0 -- -- 96
2019-02-15 08:00:00 -2.4 0 Calma 4 Este 0 -- -- 94
2019-02-15 07:00:00 -2.3 3 Este 7 Nordeste 0 -- -- 93
2019-02-15 06:00:00 -1 4 Nordeste 7 Nordeste 0 -- -- 94
2019-02-15 05:00:00 -0.7 0 Calma 8 Nordeste 0 -- -- 92
2019-02-15 04:00:00 0.5 3 Nordeste 9 Nordeste 0 -- -- 92
2019-02-15 03:00:00 0.9 7 Nordeste 14 Nordeste 0 -- -- 90
2019-02-15 02:00:00 1.6 10 Nordeste 14 Nordeste 0 -- -- 86
2019-02-15 01:00:00 2 5 Este 17 Este 0 -- -- 84
2019-02-15 00:00:00 3.2 13 Nordeste 18 Nordeste 0 -- -- 74
2019-02-14 23:00:00 3.4 8 Nordeste 12 Nordeste 0 -- -- 64
2019-02-14 22:00:00 4.3 5 Nordeste 8 Nordeste 0 -- -- 60
2019-02-14 21:00:00 4.9 4 Nordeste 7 Este 0 -- -- 58
2019-02-14 20:00:00 7.1 4 Este 11 Nordeste 0 -- -- 56
2019-02-14 19:00:00 9.9 3 Nordeste 12 Este 0 -- -- 53
2019-02-14 18:00:00 12.9 12 Este 29 Este 0 -- -- 46
2019-02-14 17:00:00 14.2 21 Sudeste 30 Sudeste 0 -- -- 38
2019-02-14 16:00:00 14.6 21 Sudeste 33 Sudeste 0 -- -- 39
2019-02-14 15:00:00 13.8 23 Sudeste 35 Sudeste 0 -- -- 41
2019-02-14 14:00:00 12.9 25 Sudeste 37 Este 0 -- -- 50
2019-02-14 13:00:00 11.9 22 Este 33 Este 0 -- -- 57
2019-02-14 12:00:00 10.3 24 Sudeste 33 Sudeste 0 -- -- 66
2019-02-14 11:00:00 8.3 13 Sudeste 19 Este 0 -- -- 72
2019-02-14 10:00:00 5.4 10 Sudeste 14 Este 0 -- -- 81
2019-02-14 09:00:00 2 9 Este 15 Este 0 -- -- 87
2019-02-14 08:00:00 0.7 10 Este 16 Este 0 -- -- 90
2019-02-14 07:00:00 1.1 9 Nordeste 14 Este 0 -- -- 92
2019-02-14 06:00:00 1.4 11 Nordeste 15 Nordeste 0 -- -- 92
2019-02-14 05:00:00 2.1 11 Nordeste 17 Nordeste 0 -- -- 92
2019-02-14 04:00:00 2.6 7 Este 12 Este 0 -- -- 92
2019-02-14 03:00:00 2.5 8 Este 13 Este 0 -- -- 91
2019-02-14 02:00:00 3.2 10 Este 17 Nordeste 0 -- -- 89
2019-02-14 01:00:00 3.9 9 Este 17 Este 0 -- -- 86
2019-02-14 00:00:00 4.4 12 Este 21 Nordeste 0 -- -- 81
2019-02-13 23:00:00 5.3 15 Nordeste 22 Este 0 -- -- 72
2019-02-13 22:00:00 5.3 10 Este 18 Nordeste 0 -- -- 73
2019-02-13 21:00:00 5.7 3 Sudeste 19 Nordeste 0 -- -- 71
2019-02-13 20:00:00 8 13 Este 16 Nordeste 0 -- -- 65
2019-02-13 19:00:00 9.8 8 Este 12 Este 0 -- -- 58
2019-02-13 18:00:00 13 10 Sudeste 20 Sudeste 0 -- -- 51
2019-02-13 17:00:00 14.2 14 Este 21 Este 0 -- -- 46
2019-02-13 16:00:00 14.5 15 Sudeste 24 Este 0 -- -- 44
2019-02-13 15:00:00 13.9 13 Este 19 Este 0 -- -- 46
2019-02-13 14:00:00 13.3 9 Sudeste 17 Sudeste 0 -- -- 49
2019-02-13 13:00:00 11.6 12 Sudeste 19 Sudeste 0 -- -- 54
2019-02-13 12:00:00 9.4 13 Este 19 Este 0 -- -- 60
2019-02-13 11:00:00 8.1 14 Este 18 Este 0 -- -- 67
2019-02-13 10:00:00 4.5 3 Este 5 Este 0 -- -- 81
2019-02-13 09:00:00 -0.1 3 Nordeste 4 Nordeste 0 -- -- 90
2019-02-13 08:00:00 -1.2 2 Nordeste 4 Norte 0 -- -- 91
2019-02-13 07:00:00 -1.5 2 Nordeste 5 Nordeste 0 -- -- 90
2019-02-13 06:00:00 -1.9 0 Calma 2 Este 0 -- -- 91
2019-02-13 05:00:00 -1.4 0 Calma 0 Calma 0 -- -- 91
2019-02-13 04:00:00 -0.6 0 Calma 3 Norte 0 -- -- 90
2019-02-13 03:00:00 -1 2 Nordeste 4 Nordeste 0 -- -- 87
2019-02-13 02:00:00 0.3 3 Nordeste 6 Nordeste 0 -- -- 86
2019-02-13 01:00:00 0.3 2 Nordeste 5 Nordeste 0 -- -- 85
2019-02-13 00:00:00 0.9 4 Nordeste 8 Nordeste 0 -- -- 83
2019-02-12 23:00:00 1.7 4 Norte 5 Nordeste 0 -- -- 79
2019-02-12 22:00:00 2.1 2 Nordeste 3 Nordeste 0 -- -- 78
2019-02-12 21:00:00 4 2 Norte 5 Nordeste 0 -- -- 71
2019-02-12 20:00:00 6.1 0 Calma 3 Norte 0 -- -- 64
2019-02-12 19:00:00 9.9 2 Noroeste 7 Oeste 0 -- -- 53
2019-02-12 18:00:00 13.1 4 Noroeste 10 Noroeste 0 -- -- 41
2019-02-12 17:00:00 14 5 Oeste 12 Oeste 0 -- -- 41
2019-02-12 16:00:00 14.1 4 Sudoeste 12 Sudoeste 0 -- -- 41
2019-02-12 15:00:00 13.3 7 Sur 15 Sur 0 -- -- 45
2019-02-12 14:00:00 12.2 10 Sudoeste 18 Sudoeste 0 -- -- 49
2019-02-12 13:00:00 11.1 10 Sudoeste 18 Sudoeste 0 -- -- 57
2019-02-12 12:00:00 8.8 9 Oeste 15 Oeste 0 -- -- 60
2019-02-12 11:00:00 5.9 9 Oeste 17 Oeste 0 -- -- 74
2019-02-12 10:00:00 2.5 6 Oeste 13 Oeste 0 -- -- 89
2019-02-12 09:00:00 -0.9 5 Noroeste 9 Noroeste 0 -- -- 93
2019-02-12 08:00:00 -1.6 4 Noroeste 10 Noroeste 0 -- -- 94
2019-02-12 07:00:00 -1.8 6 Noroeste 9 Noroeste 0 -- -- 93
2019-02-12 06:00:00 -0.8 0 Calma 4 Noroeste 0 -- -- 94
2019-02-12 05:00:00 -0.4 2 Oeste 6 Oeste 0 -- -- 94
2019-02-12 04:00:00 0.4 0 Calma 10 Noroeste 0 -- -- 92
2019-02-12 03:00:00 1.5 6 Noroeste 12 Noroeste 0 -- -- 91
2019-02-12 02:00:00 2.2 8 Oeste 12 Noroeste 0 -- -- 88
2019-02-12 01:00:00 2.9 4 Oeste 10 Oeste 0 -- -- 84
2019-02-12 00:00:00 3.5 5 Oeste 13 Oeste 0 -- -- 82
2019-02-11 23:00:00 4.3 9 Oeste 19 Noroeste 0 -- -- 80
2019-02-11 22:00:00 4.8 13 Noroeste 29 Oeste 0 -- -- 79
2019-02-11 21:00:00 6 6 Oeste 27 Oeste 0 -- -- 74
2019-02-11 20:00:00 6.9 11 Oeste 24 Noroeste 0 -- -- 69
2019-02-11 19:00:00 8.6 19 Noroeste 35 Noroeste 0 -- -- 58
2019-02-11 18:00:00 11 25 Noroeste 46 Noroeste 0 -- -- 52
2019-02-11 17:00:00 12.6 32 Noroeste 48 Noroeste 0 -- -- 45
2019-02-11 16:00:00 12.9 34 Noroeste 53 Oeste 0 -- -- 48
2019-02-11 15:00:00 12.5 35 Noroeste 53 Noroeste 0 -- -- 52
2019-02-11 14:00:00 11.8 40 Noroeste 65 Noroeste 0 -- -- 61
2019-02-11 13:00:00 11.1 42 Oeste 60 Noroeste 0 -- -- 62
2019-02-11 12:00:00 9.8 32 Oeste 52 Noroeste 0 -- -- 67
2019-02-11 11:00:00 8.8 31 Noroeste 54 Oeste 0 -- -- 71
2019-02-11 10:00:00 7.2 31 Noroeste 46 Noroeste 0 -- -- 77
2019-02-11 09:00:00 5 27 Noroeste 38 Noroeste 0 -- -- 85
2019-02-11 08:00:00 4.2 22 Noroeste 37 Oeste 0 -- -- 87
2019-02-11 07:00:00 3.7 16 Oeste 31 Oeste 0 -- -- 86
2019-02-11 06:00:00 4.4 21 Oeste 44 Noroeste 0 -- -- 81
2019-02-11 05:00:00 4.9 14 Oeste 39 Oeste 0 -- -- 78
2019-02-11 04:00:00 5.5 23 Oeste 41 Oeste 0 -- -- 75
2019-02-11 03:00:00 5.7 21 Oeste 41 Oeste 0 -- -- 73
2019-02-11 02:00:00 5.7 17 Oeste 33 Oeste 0 -- -- 79
2019-02-11 01:00:00 6.8 19 Oeste 33 Oeste 0 -- -- 73
2019-02-11 00:00:00 6.7 20 Oeste 35 Oeste 0 -- -- 77
2019-02-10 23:00:00 7.2 21 Oeste 30 Oeste 0 -- -- 74
2019-02-10 22:00:00 8.3 15 Oeste 30 Oeste 0 -- -- 73
2019-02-10 21:00:00 8.3 17 Oeste 33 Oeste 0 -- -- 76
2019-02-10 20:00:00 9.2 17 Oeste 28 Oeste 0 -- -- 78
2019-02-10 19:00:00 9.8 19 Noroeste 29 Oeste 0 -- -- 80
2019-02-10 18:00:00 10.5 19 Noroeste 42 Noroeste 0 -- -- 77
2019-02-10 17:00:00 12.5 18 Noroeste 35 Noroeste 0 -- -- 78
2019-02-10 16:00:00 14.2 19 Noroeste 31 Noroeste 0 -- -- 63
2019-02-10 15:00:00 14.4 16 Noroeste 28 Noroeste 0 -- -- 60
2019-02-10 14:00:00 14.2 11 Noroeste 28 Noroeste 0 -- -- 61
2019-02-10 13:00:00 12.7 5 Noroeste 12 Sudoeste 0 -- -- 66
2019-02-10 12:00:00 10.2 3 Oeste 8 Oeste 0 -- -- 74
2019-02-10 11:00:00 9.1 3 Sudoeste 7 Sudoeste 0 -- -- 80
2019-02-10 10:00:00 4.7 0 Calma 5 Sur 0 -- -- 95
2019-02-10 09:00:00 3.6 2 Nordeste 7 Oeste 0 -- -- 95
2019-02-10 08:00:00 2.9 2 Sudeste 8 Nordeste 0 -- -- 93
2019-02-10 07:00:00 3.5 5 Nordeste 12 Este 0 -- -- 93
2019-02-10 06:00:00 3.6 5 Este 12 Este 0 -- -- 91
2019-02-10 05:00:00 4.4 4 Nordeste 13 Este 0 -- -- 89
2019-02-10 04:00:00 4.8 10 Este 14 Este 0 -- -- 88
2019-02-10 03:00:00 5.1 10 Este 18 Este 0 -- -- 87
2019-02-10 02:00:00 5.8 12 Este 15 Este 0 -- -- 89
2019-02-10 01:00:00 6.1 12 Nordeste 17 Este 0 -- -- 86
2019-02-10 00:00:00 6.2 6 Este 16 Nordeste 0 -- -- 87
2019-02-09 23:00:00 6.3 11 Nordeste 17 Este 0 -- -- 87
2019-02-09 22:00:00 6.9 12 Este 20 Este 0 -- -- 85
2019-02-09 21:00:00 7.7 12 Este 22 Este 0 -- -- 82
2019-02-09 20:00:00 8.6 15 Sudeste 20 Sudeste 0 -- -- 80
2019-02-09 19:00:00 10.2 12 Este 18 Sudeste 0 -- -- 72
2019-02-09 18:00:00 12.8 13 Sudeste 20 Sudeste 0 -- -- 64
2019-02-09 17:00:00 15 11 Sudeste 18 Sudeste 0 -- -- 56
2019-02-09 16:00:00 16.1 8 Sur 14 Sur 0 -- -- 47
2019-02-09 15:00:00 15.5 4 Sudeste 14 Sur 0 -- -- 49
2019-02-09 14:00:00 14.5 6 Oeste 15 Sudoeste 0 -- -- 56
2019-02-09 13:00:00 13.3 7 Sudoeste 19 Noroeste 0 -- -- 61
2019-02-09 12:00:00 12.1 10 Oeste 19 Sudoeste 0 -- -- 66
2019-02-09 11:00:00 9.5 6 Oeste 15 Sudoeste 0 -- -- 77
2019-02-09 10:00:00 6.6 10 Sudoeste 13 Sudoeste 0 -- -- 90
2019-02-09 09:00:00 3.5 4 Oeste 7 Oeste 0 -- -- 95
2019-02-09 08:00:00 2.7 3 Oeste 8 Sudoeste 0 -- -- 94
2019-02-09 07:00:00 2.4 3 Oeste 7 Sudoeste 0 -- -- 95
2019-02-09 06:00:00 2 5 Oeste 8 Oeste 0 -- -- 95
2019-02-09 05:00:00 1.5 3 Oeste 6 Noroeste 0 -- -- 95
2019-02-09 04:00:00 1.5 2 Sudoeste 9 Noroeste 0 -- -- 93
2019-02-09 03:00:00 1.5 0 Calma 5 Noroeste 0 -- -- 93
2019-02-09 02:00:00 2.2 3 Noroeste 5 Noroeste 0 -- -- 92
2019-02-09 01:00:00 3.3 3 Norte 6 Norte 0 -- -- 91
2019-02-09 00:00:00 3 0 Calma 8 Nordeste 0 -- -- 90
2019-02-08 23:00:00 4.2 4 Nordeste 9 Nordeste 0 -- -- 89
2019-02-08 22:00:00 4.2 3 Este 13 Oeste 0 -- -- 86
2019-02-08 21:00:00 6.5 2 Nordeste 8 Este 0 -- -- 80
2019-02-08 20:00:00 7.9 5 Este 10 Este 0 -- -- 77
2019-02-08 19:00:00 9.7 7 Este 11 Este 0 -- -- 71
2019-02-08 18:00:00 12.8 8 Este 13 Este 0 -- -- 62
2019-02-08 17:00:00 14.2 10 Sudeste 13 Sudeste 0 -- -- 58
2019-02-08 16:00:00 14.1 9 Este 17 Sudeste 0 -- -- 57
2019-02-08 15:00:00 13.7 11 Este 20 Este 0 -- -- 59
2019-02-08 14:00:00 12.6 12 Este 19 Sudeste 0 -- -- 62
2019-02-08 13:00:00 11.1 13 Sudeste 21 Este 0 -- -- 66
2019-02-08 12:00:00 9.4 13 Este 18 Este 0 -- -- 71
2019-02-08 11:00:00 7.5 12 Sudeste 17 Sudeste 0 -- -- 82
2019-02-08 10:00:00 3.2 4 Sudeste 7 Este 0 -- -- 93
2019-02-08 09:00:00 0.7 3 Nordeste 5 Nordeste 0 -- -- 94
2019-02-08 08:00:00 0.4 3 Norte 4 Nordeste 0 -- -- 94
2019-02-08 07:00:00 0.6 0 Calma 3 Este 0 -- -- 93
2019-02-08 06:00:00 0.8 2 Este 5 Norte 0 -- -- 91
2019-02-08 05:00:00 2.3 4 Noroeste 8 Noroeste 0 -- -- 90
2019-02-08 04:00:00 3 3 Noroeste 12 Noroeste 0 -- -- 87
2019-02-08 03:00:00 3.2 3 Oeste 10 Sudoeste 0 -- -- 87
2019-02-08 02:00:00 4.5 5 Oeste 19 Oeste 0 -- -- 84
2019-02-08 01:00:00 4.1 10 Oeste 14 Oeste 0 -- -- 85
2019-02-08 00:00:00 4.8 4 Oeste 17 Sudoeste 0 -- -- 81
2019-02-07 23:00:00 5.2 6 Oeste 18 Oeste 0 -- -- 81
2019-02-07 22:00:00 5.9 9 Oeste 23 Sudoeste 0 -- -- 78
2019-02-07 21:00:00 7.5 13 Oeste 27 Sudoeste 0 -- -- 72
2019-02-07 20:00:00 8.9 18 Noroeste 41 Noroeste 0 -- -- 63
2019-02-07 19:00:00 10.4 25 Noroeste 40 Noroeste 0 -- -- 65
2019-02-07 18:00:00 12.3 21 Noroeste 42 Oeste 0 -- -- 60
2019-02-07 17:00:00 13.7 28 Oeste 47 Oeste 0 -- -- 54
2019-02-07 16:00:00 15.2 26 Oeste 42 Oeste 0 -- -- 52
2019-02-07 15:00:00 15.7 26 Oeste 42 Noroeste 0 -- -- 52
2019-02-07 14:00:00 15.8 23 Oeste 37 Oeste 0 -- -- 52
2019-02-07 13:00:00 13.5 20 Oeste 35 Oeste 0 -- -- 69
2019-02-07 12:00:00 11.4 20 Oeste 38 Oeste 0 -- -- 77
2019-02-07 11:00:00 9.7 18 Oeste 33 Oeste 0 -- -- 83
2019-02-07 10:00:00 7 19 Noroeste 29 Noroeste 0 -- -- 93
2019-02-07 09:00:00 4.8 4 Oeste 7 Oeste 0 -- -- 98
2019-02-07 08:00:00 4.4 6 Oeste 13 Sudoeste 0 -- -- 97
2019-02-07 07:00:00 3.9 3 Sudoeste 14 Oeste 0 -- -- 97
2019-02-07 06:00:00 3.5 8 Oeste 12 Oeste 0 -- -- 98
2019-02-07 05:00:00 2.4 3 Noroeste 8 Noroeste 0 -- -- 97
2019-02-07 04:00:00 1.1 0 Calma 2 Norte 0 -- -- 97
2019-02-07 03:00:00 1.4 0 Calma 4 Norte 0 -- -- 96
2019-02-07 02:00:00 2.3 0 Calma 4 Nordeste 0 -- -- 94
2019-02-07 01:00:00 3.4 2 Nordeste 6 Nordeste 0 -- -- 95
2019-02-07 00:00:00 4.3 4 Nordeste 7 Nordeste 0 -- -- 93
2019-02-06 23:00:00 5.6 6 Este 8 Este 0 -- -- 94
2019-02-06 22:00:00 6.1 7 Nordeste 9 Nordeste 0 -- -- 92
2019-02-06 21:00:00 7.1 9 Este 13 Este 0 -- -- 90
2019-02-06 20:00:00 8.4 10 Nordeste 13 Nordeste 0 -- -- 85
2019-02-06 19:00:00 10.9 8 Nordeste 9 Nordeste 0 -- -- 70
2019-02-06 18:00:00 15.1 2 Sudoeste 6 Oeste 0 -- -- 57
2019-02-06 17:00:00 15.6 3 Noroeste 10 Noroeste 0 -- -- 54
2019-02-06 16:00:00 15.4 5 Oeste 9 Oeste 0 -- -- 59
2019-02-06 15:00:00 14.5 4 Oeste 13 Sur 0 -- -- 62
2019-02-06 14:00:00 12.3 3 Norte 13 Norte 0 -- -- 71
2019-02-06 13:00:00 10.1 5 Oeste 10 Oeste 0 -- -- 86
2019-02-06 12:00:00 6.8 3 Noroeste 6 Noroeste 0 -- -- 99
2019-02-06 11:00:00 5 4 Oeste 6 Oeste 0 -- -- 98
2019-02-06 10:00:00 4.6 4 Noroeste 10 Oeste 0 -- -- 98
2019-02-06 09:00:00 4.8 8 Oeste 15 Oeste 0 -- -- 98
2019-02-06 08:00:00 3.3 4 Noroeste 8 Noroeste 0 -- -- 97
2019-02-06 07:00:00 3 2 Norte 6 Oeste 0 -- -- 97
2019-02-06 06:00:00 4.3 4 Sudoeste 12 Oeste 0 -- -- 96
2019-02-06 05:00:00 5.2 7 Noroeste 13 Oeste 0 -- -- 95
2019-02-06 04:00:00 5.9 4 Sudoeste 19 Oeste 0 -- -- 94
2019-02-06 03:00:00 6.3 4 Oeste 18 Oeste 0 -- -- 93
2019-02-06 02:00:00 7.1 13 Oeste 26 Noroeste 0 -- -- 92
2019-02-06 01:00:00 7.5 10 Oeste 28 Oeste 0 -- -- 91
2019-02-06 00:00:00 7.9 15 Oeste 26 Oeste 0 -- -- 91
2019-02-05 23:00:00 8.2 7 Oeste 24 Oeste 0 -- -- 89
2019-02-05 22:00:00 8.6 5 Sudeste 36 Oeste 0 -- -- 87
2019-02-05 21:00:00 9.7 25 Noroeste 36 Noroeste 0 -- -- 85
2019-02-05 20:00:00 10.1 10 Noroeste 31 Oeste 0 -- -- 83
2019-02-05 19:00:00 11.8 11 Oeste 35 Oeste 0 -- -- 76
2019-02-05 18:00:00 14.1 26 Oeste 39 Oeste 0 -- -- 67
2019-02-05 17:00:00 16.2 21 Oeste 44 Oeste 0 -- -- 60
2019-02-05 16:00:00 16.3 23 Oeste 44 Oeste 0 -- -- 61
2019-02-05 15:00:00 17.4 20 Oeste 44 Sudoeste 0 -- -- 56
2019-02-05 14:00:00 14.4 23 Oeste 45 Oeste 0 -- -- 68
2019-02-05 13:00:00 13.9 28 Oeste 48 Oeste 0 -- -- 69
2019-02-05 12:00:00 13.3 23 Oeste 37 Oeste 0 -- -- 72
2019-02-05 11:00:00 10.3 19 Oeste 36 Noroeste 0 -- -- 80
2019-02-05 10:00:00 7.9 7 Noroeste 27 Noroeste 0 -- -- 88
2019-02-05 09:00:00 6.4 18 Noroeste 31 Oeste 0 -- -- 90
2019-02-05 08:00:00 5.8 12 Oeste 27 Sudoeste 0 -- -- 91
2019-02-05 07:00:00 6.3 21 Oeste 35 Oeste 0 -- -- 91
2019-02-05 06:00:00 5.7 17 Oeste 32 Oeste 0 -- -- 90
2019-02-05 05:00:00 5.9 19 Oeste 40 Oeste 0 -- -- 89
2019-02-05 04:00:00 5.8 18 Oeste 30 Oeste 0 -- -- 88
2019-02-05 03:00:00 5.9 12 Oeste 32 Oeste 0 -- -- 86
2019-02-05 02:00:00 6 21 Oeste 32 Oeste 0 -- -- 82
2019-02-05 01:00:00 6.1 16 Oeste 36 Oeste 0 -- -- 79
2019-02-05 00:00:00 6.7 12 Oeste 26 Oeste 0 -- -- 78
2019-02-04 23:00:00 7 15 Oeste 30 Oeste 0 -- -- 76
2019-02-04 22:00:00 7.5 17 Oeste 29 Oeste 0 -- -- 71
2019-02-04 21:00:00 7.5 15 Oeste 30 Oeste 0 -- -- 66
2019-02-04 20:00:00 8 18 Oeste 33 Oeste 0 -- -- 65
2019-02-04 19:00:00 8.7 20 Oeste 32 Noroeste 0 -- -- 64
2019-02-04 18:00:00 9.7 11 Oeste 24 Oeste 0 -- -- 58
2019-02-04 17:00:00 10.4 18 Oeste 39 Oeste 0 -- -- 53
2019-02-04 16:00:00 10.4 21 Oeste 38 Oeste 0 -- -- 54
2019-02-04 15:00:00 11.3 18 Oeste 32 Oeste -- -- -- 50
2019-02-04 14:00:00 10.1 18 Oeste 34 Oeste 0 -- -- 49
2019-02-04 13:00:00 9.4 21 Oeste 36 Sudoeste 0 -- -- 51
2019-02-04 12:00:00 8.1 21 Oeste 34 Oeste 0 -- -- 51
2019-02-04 11:00:00 5.8 19 Oeste 31 Oeste 0 -- -- 53
2019-02-04 10:00:00 3.4 13 Oeste 27 Oeste 0 -- -- 70
2019-02-04 09:00:00 1.5 12 Oeste 22 Oeste 0 -- -- 81
2019-02-04 08:00:00 0.8 16 Oeste 26 Oeste 0 -- -- 83
2019-02-04 07:00:00 0.9 15 Oeste 35 Oeste 0 -- -- 83
2019-02-04 06:00:00 1.1 19 Oeste 32 Oeste 0 -- -- 86
2019-02-04 05:00:00 1 11 Oeste 32 Oeste 0 -- -- 84
2019-02-04 04:00:00 1.2 16 Oeste 30 Oeste 0 -- -- 82
2019-02-04 03:00:00 1.1 17 Oeste 38 Oeste 0 -- -- 81
2019-02-04 02:00:00 1.8 19 Oeste 34 Oeste 0 -- -- 80
2019-02-04 01:00:00 1.5 19 Oeste 39 Oeste 0 -- -- 80
2019-02-04 00:00:00 1.5 20 Oeste 37 Oeste 0 -- -- 78
2019-02-03 23:00:00 1.4 13 Oeste 45 Noroeste 0 -- -- 73
2019-02-03 22:00:00 2.3 32 Oeste 48 Oeste 0 -- -- 65
2019-02-03 21:00:00 2.5 21 Oeste 41 Noroeste 0 -- -- 64
2019-02-03 20:00:00 2.5 28 Noroeste 43 Noroeste 0 -- -- 59
2019-02-03 19:00:00 3.7 21 Sudoeste 35 Sudoeste 0 -- -- 42
2019-02-03 18:00:00 5.5 19 Noroeste 41 Noroeste 0 -- -- 37
2019-02-03 17:00:00 6.7 30 Noroeste 52 Noroeste 0 -- -- 32
2019-02-03 16:00:00 7 35 Noroeste 55 Noroeste 0 -- -- 34
2019-02-03 15:00:00 6.8 41 Noroeste 63 Noroeste 0 -- -- 35
2019-02-03 14:00:00 6.7 38 Noroeste 64 Noroeste 0 -- -- 38
2019-02-03 13:00:00 6.3 39 Noroeste 60 Noroeste 0 -- -- 41
2019-02-03 12:00:00 5.7 34 Noroeste 62 Noroeste 0 -- -- 43
2019-02-03 11:00:00 4.8 40 Noroeste 61 Noroeste 0 -- -- 46
2019-02-03 10:00:00 3.9 40 Noroeste 63 Noroeste 0 -- -- 49
2019-02-03 09:00:00 3 42 Noroeste 66 Noroeste 0 -- -- 53
2019-02-03 08:00:00 2.3 32 Noroeste 47 Noroeste 0 -- -- 57
2019-02-03 07:00:00 2.1 27 Noroeste 61 Noroeste 0 -- -- 57
2019-02-03 06:00:00 2.4 38 Noroeste 69 Noroeste 0 -- -- 57
2019-02-03 05:00:00 2.6 31 Noroeste 54 Oeste 0 -- -- 55
2019-02-03 04:00:00 2.4 36 Noroeste 56 Noroeste 0 -- -- 58
2019-02-03 03:00:00 1.4 15 Oeste 49 Noroeste 0 -- -- 76
2019-02-03 02:00:00 1.1 28 Oeste 45 Oeste 0 -- -- 82
2019-02-03 01:00:00 0.8 26 Oeste 52 Oeste 0 -- -- 91
2019-02-03 00:00:00 1.1 27 Oeste 49 Oeste 0 -- -- 91
2019-02-02 23:00:00 1.4 29 Oeste 47 Oeste 0 -- -- 90
2019-02-02 22:00:00 1.3 25 Oeste 53 Oeste 0 -- -- 92
2019-02-02 21:00:00 0.9 23 Oeste 55 Oeste 0 -- -- 92
2019-02-02 20:00:00 2.2 32 Oeste 55 Oeste 0 -- -- 83
2019-02-02 19:00:00 4.1 29 Noroeste 62 Noroeste 0 -- -- 59
2019-02-02 18:00:00 4.4 40 Noroeste 61 Noroeste 0 -- -- 67
2019-02-02 17:00:00 5.2 45 Noroeste 78 Noroeste 0 -- -- 64
2019-02-02 16:00:00 6.3 36 Noroeste 66 Noroeste 0 -- -- 62
2019-02-02 15:00:00 6.7 42 Oeste 68 Oeste 0 -- -- 64
2019-02-02 14:00:00 6.9 45 Oeste 67 Oeste 0 -- -- 69
2019-02-02 13:00:00 6.6 36 Oeste 69 Oeste 0 -- -- 78
2019-02-02 12:00:00 6.2 49 Noroeste 72 Noroeste 0 -- -- 78
2019-02-02 11:00:00 4.1 36 Oeste 63 Oeste 0.2 -- -- 90
2019-02-02 10:00:00 2.1 34 Oeste 55 Oeste 0.4 -- -- 95
2019-02-02 09:00:00 1.6 35 Oeste 57 Oeste 0 -- -- 93
2019-02-02 08:00:00 1.9 37 Oeste 62 Noroeste 0.2 -- -- 92
2019-02-02 07:00:00 3 40 Oeste 61 Oeste 0 -- -- 89
2019-02-02 06:00:00 3.5 27 Oeste 47 Oeste 0 -- -- 89
2019-02-02 05:00:00 3.9 23 Oeste 37 Noroeste 0 -- -- 87
2019-02-02 04:00:00 3.6 13 Oeste 32 Oeste 0 -- -- 89
2019-02-02 03:00:00 3.8 10 Oeste 36 Oeste 0 -- -- 84
2019-02-02 02:00:00 4.6 16 Oeste 41 Oeste 0 -- -- 81
2019-02-02 01:00:00 3.5 6 Sudoeste 10 Oeste 0 -- -- 83
2019-02-02 00:00:00 4.9 4 Oeste 13 Sudoeste 0 -- -- 78
2019-02-01 23:00:00 5 12 Sudoeste 21 Sudoeste 0 -- -- 79
2019-02-01 22:00:00 5.4 18 Sudoeste 26 Sudoeste 0 -- -- 79
2019-02-01 21:00:00 5.4 17 Sudoeste 32 Sudoeste 0 -- -- 82
2019-02-01 20:00:00 6.3 19 Sudoeste 36 Sudoeste 0 -- -- 79
2019-02-01 19:00:00 7.5 19 Sudoeste 44 Sudoeste 0 -- -- 69
2019-02-01 18:00:00 8.4 15 Sudoeste 57 Sudoeste 0 -- -- 78
2019-02-01 17:00:00 10.8 9 Sur 17 Este 0 -- -- 63
2019-02-01 16:00:00 10.7 3 Norte 16 Oeste 0 -- -- 62
2019-02-01 15:00:00 12.2 8 Sudoeste 17 Sudoeste 0 -- -- 54
2019-02-01 14:00:00 12.6 15 Sudoeste 33 Oeste 0 -- -- 53
2019-02-01 13:00:00 11.2 20 Oeste 36 Oeste 0 -- -- 57
2019-02-01 12:00:00 11.1 10 Oeste 20 Sudoeste 0 -- -- 58
2019-02-01 11:00:00 11 12 Sudoeste 24 Sudoeste 0 -- -- 68
2019-02-01 10:00:00 8.8 18 Sudoeste 26 Sudoeste 0 -- -- 77
2019-02-01 09:00:00 6.3 6 Sudoeste 15 Sudoeste 0 -- -- 90
2019-02-01 08:00:00 7.2 5 Este 19 Oeste 0 -- -- 92
2019-02-01 07:00:00 7.1 10 Oeste 19 Sudoeste 0.2 -- -- 98
2019-02-01 06:00:00 6.6 6 Sudeste 14 Sudeste 0.6 -- -- 98
2019-02-01 05:00:00 6.5 6 Este 12 Este 0.8 -- -- 98
2019-02-01 04:00:00 6.4 4 Sudeste 9 Este 1.2 -- -- 97
2019-02-01 03:00:00 6.4 3 Nordeste 17 Este 0.8 -- -- 97
2019-02-01 02:00:00 6.4 11 Este 22 Sudeste 0 -- -- 97
2019-02-01 01:00:00 6.2 14 Este 21 Este 0 -- -- 97
2019-02-01 00:00:00 6.3 15 Este 22 Este 0 -- -- 96
2019-01-31 23:00:00 6.6 14 Este 25 Este 0 -- -- 95
2019-01-31 22:00:00 7 13 Este 25 Este 0 -- -- 94
2019-01-31 21:00:00 7.3 16 Este 27 Sudeste 0 -- -- 93
2019-01-31 20:00:00 7.3 15 Este 27 Este 0 -- -- 93
2019-01-31 19:00:00 7.6 18 Este 24 Este 0 -- -- 93
2019-01-31 18:00:00 8 16 Este 22 Sudeste 0 -- -- 91
2019-01-31 17:00:00 8.5 14 Este 20 Este 0 -- -- 89
2019-01-31 16:00:00 8.7 12 Este 19 Sudeste 0 -- -- 88
2019-01-31 15:00:00 8.6 13 Sudeste 18 Sudeste 0 -- -- 87
2019-01-31 14:00:00 8.3 9 Sudeste 14 Este 0 -- -- 87
2019-01-31 13:00:00 7.1 10 Sudeste 17 Este 0 -- -- 91
2019-01-31 12:00:00 5.4 11 Este 16 Este 0 -- -- 98
2019-01-31 11:00:00 4 10 Este 14 Este 0.2 -- -- 98
2019-01-31 10:00:00 3.3 9 Este 15 Sudeste 1.4 -- -- 98
2019-01-31 09:00:00 3.2 11 Sudeste 14 Sudeste 0.8 -- -- 98
2019-01-31 08:00:00 3.1 9 Este 15 Sudeste 0.4 -- -- 98
2019-01-31 07:00:00 3.1 9 Sudeste 14 Sudeste 0.4 -- -- 97
2019-01-31 06:00:00 3.1 10 Este 15 Este 1.8 -- -- 97
2019-01-31 05:00:00 3.2 10 Este 17 Este 1 -- -- 97
2019-01-31 04:00:00 3.4 10 Este 15 Este 1 -- -- 96
2019-01-31 03:00:00 3.5 10 Este 17 Nordeste 0.2 -- -- 95
2019-01-31 02:00:00 3.5 10 Nordeste 17 Este 1.2 -- -- 94
2019-01-31 01:00:00 4 5 Este 11 Norte 1.6 -- -- 94
2019-01-31 00:00:00 3.8 9 Nordeste 13 Nordeste 1.4 -- -- 93
2019-01-30 23:00:00 3.6 4 Noroeste 6 Norte 0.4 -- -- 89
2019-01-30 22:00:00 3.6 4 Oeste 24 Sudoeste 0 -- -- 82
2019-01-30 21:00:00 3.1 5 Este 9 Este 0 -- -- 81
2019-01-30 20:00:00 3.4 3 Este 9 Nordeste 0 -- -- 81
2019-01-30 19:00:00 4.7 4 Nordeste 8 Oeste 0 -- -- 72
2019-01-30 18:00:00 6.9 6 Oeste 14 Oeste 0 -- -- 63
2019-01-30 17:00:00 8.4 10 Oeste 24 Oeste 0 -- -- 58
2019-01-30 16:00:00 8.7 17 Oeste 36 Noroeste 0 -- -- 61
2019-01-30 15:00:00 8.8 24 Oeste 39 Oeste 0 -- -- 62
2019-01-30 14:00:00 8.1 22 Oeste 37 Oeste 0 -- -- 64
2019-01-30 13:00:00 6.9 16 Oeste 30 Oeste 0 -- -- 74
2019-01-30 12:00:00 6.2 13 Oeste 24 Oeste 0 -- -- 78
2019-01-30 11:00:00 5.2 11 Oeste 20 Oeste 0 -- -- 83
2019-01-30 10:00:00 4.3 8 Oeste 20 Sudoeste 0 -- -- 87
2019-01-30 09:00:00 2.7 3 Oeste 10 Oeste 0 -- -- 90
2019-01-30 08:00:00 2.4 10 Sudoeste 22 Oeste 0 -- -- 89
2019-01-30 07:00:00 2.6 5 Oeste 24 Oeste 0 -- -- 88
2019-01-30 06:00:00 2.9 13 Oeste 23 Oeste 0 -- -- 89
2019-01-30 05:00:00 3 11 Oeste 35 Oeste 0 -- -- 87
2019-01-30 04:00:00 3.3 22 Oeste 45 Noroeste 0 -- -- 87
2019-01-30 03:00:00 3.4 30 Noroeste 53 Oeste 0 -- -- 89
2019-01-30 02:00:00 4.1 34 Oeste 49 Oeste 0 -- -- 86
2019-01-30 01:00:00 4.3 23 Oeste 42 Oeste 0 -- -- 85
2019-01-30 00:00:00 4.7 23 Oeste 51 Noroeste 0 -- -- 83
2019-01-29 23:00:00 4.7 14 Oeste 32 Oeste 0 -- -- 86
2019-01-29 22:00:00 5.3 19 Oeste 34 Oeste 0 -- -- 86
2019-01-29 21:00:00 4.9 19 Oeste 28 Oeste 0 -- -- 91
2019-01-29 20:00:00 5.2 17 Oeste 26 Oeste 0 -- -- 91
2019-01-29 19:00:00 4.5 4 Noroeste 8 Noroeste 0 -- -- 93
2019-01-29 18:00:00 5.7 0 Calma 9 Norte 0.6 -- -- 89
2019-01-29 17:00:00 6.6 8 Norte 13 Norte 0.4 -- -- 84
2019-01-29 16:00:00 7.2 5 Nordeste 7 Noroeste 0.4 -- -- 81
2019-01-29 15:00:00 7.7 3 Noroeste 13 Sudoeste 0 -- -- 73
2019-01-29 14:00:00 7.8 6 Oeste 17 Oeste 0 -- -- 74
2019-01-29 13:00:00 7 11 Oeste 21 Oeste 0 -- -- 75
2019-01-29 12:00:00 7 13 Oeste 25 Oeste 0 -- -- 76
2019-01-29 11:00:00 6.6 12 Oeste 27 Oeste 0 -- -- 82
2019-01-29 10:00:00 5.2 10 Oeste 19 Oeste 0 -- -- 91
2019-01-29 09:00:00 4.2 10 Oeste 25 Oeste 0 -- -- 92
2019-01-29 08:00:00 4.2 12 Oeste 33 Sudoeste 0 -- -- 92
2019-01-29 07:00:00 3.5 17 Oeste 29 Oeste 0 -- -- 92
2019-01-29 06:00:00 3.4 12 Oeste 32 Oeste 0 -- -- 90
2019-01-29 05:00:00 3.7 16 Oeste 36 Oeste 0 -- -- 91
2019-01-29 04:00:00 3.6 13 Oeste 33 Oeste 0 -- -- 90
2019-01-29 03:00:00 3.8 18 Oeste 31 Oeste 0 -- -- 90
2019-01-29 02:00:00 4.3 19 Oeste 35 Oeste 0 -- -- 89
2019-01-29 01:00:00 4.6 14 Oeste 35 Oeste 0 -- -- 87
2019-01-29 00:00:00 5.2 14 Oeste 41 Oeste 0 -- -- 82
2019-01-28 23:00:00 5.3 24 Oeste 49 Oeste 0 -- -- 84
2019-01-28 22:00:00 5.4 22 Oeste 52 Oeste 0 -- -- 84
2019-01-28 21:00:00 6.3 36 Noroeste 56 Noroeste 0 -- -- 77
2019-01-28 20:00:00 6.1 33 Noroeste 48 Noroeste 0 -- -- 79
2019-01-28 19:00:00 6.5 20 Oeste 51 Oeste 0 -- -- 77
2019-01-28 18:00:00 7.6 31 Oeste 49 Oeste 0 -- -- 74
2019-01-28 17:00:00 8.7 28 Oeste 69 Noroeste 0 -- -- 71
2019-01-28 16:00:00 9.6 42 Noroeste 72 Noroeste 0 -- -- 67
2019-01-28 15:00:00 9.8 43 Noroeste 62 Noroeste 0 -- -- 66
2019-01-28 14:00:00 8.7 51 Noroeste 78 Noroeste 0 -- -- 71
2019-01-28 13:00:00 8.4 30 Oeste 55 Oeste 0 -- -- 78
2019-01-28 12:00:00 7.5 23 Oeste 43 Oeste 0 -- -- 89
2019-01-28 11:00:00 6.3 27 Oeste 53 Noroeste 0.4 -- -- 89
2019-01-28 10:00:00 5.8 31 Oeste 56 Oeste 0.2 -- -- 85
2019-01-28 09:00:00 4.3 20 Oeste 33 Oeste 0.2 -- -- 88
2019-01-28 08:00:00 3.2 12 Oeste 26 Oeste 0 -- -- 89
2019-01-28 07:00:00 2.9 11 Oeste 23 Oeste 0 -- -- 92
2019-01-28 06:00:00 2.6 8 Oeste 19 Oeste 0 -- -- 91
2019-01-28 05:00:00 2.6 14 Oeste 27 Oeste 0 -- -- 89
2019-01-28 04:00:00 3.1 15 Oeste 35 Oeste 0 -- -- 87
2019-01-28 03:00:00 3.5 22 Oeste 36 Oeste 0 -- -- 88
2019-01-28 02:00:00 3.5 23 Oeste 41 Oeste 0 -- -- 88
2019-01-28 01:00:00 3.7 29 Oeste 49 Noroeste 0 -- -- 87
2019-01-28 00:00:00 3.8 28 Oeste 49 Oeste 0 -- -- 86
2019-01-27 23:00:00 3.8 23 Oeste 45 Oeste 0 -- -- 84
2019-01-27 22:00:00 4.3 27 Oeste 45 Oeste 0 -- -- 80
2019-01-27 21:00:00 4.7 25 Oeste 46 Oeste 0 -- -- 77
2019-01-27 20:00:00 5.1 34 Oeste 56 Oeste 0 -- -- 75
2019-01-27 19:00:00 5.5 38 Oeste 58 Oeste 0 -- -- 69
2019-01-27 18:00:00 6.2 37 Oeste 60 Oeste 0 -- -- 71
2019-01-27 17:00:00 8.5 37 Noroeste 71 Noroeste 0 -- -- 58
2019-01-27 16:00:00 8.7 37 Oeste 71 Noroeste 0 -- -- 60
2019-01-27 15:00:00 9.2 43 Noroeste 64 Noroeste 0 -- -- 64
2019-01-27 14:00:00 9.1 33 Noroeste 67 Noroeste 0 -- -- 65
2019-01-27 13:00:00 10.4 40 Noroeste 60 Noroeste 0 -- -- 55
2019-01-27 12:00:00 9.3 31 Oeste 58 Oeste 0 -- -- 64
2019-01-27 11:00:00 9.1 15 Oeste 43 Oeste 0 -- -- 74
2019-01-27 10:00:00 8.2 36 Noroeste 49 Oeste 0 -- -- 74
2019-01-27 09:00:00 4.3 8 Noroeste 22 Noroeste 0 -- -- 91
2019-01-27 08:00:00 3.9 10 Oeste 26 Oeste 0 -- -- 90
2019-01-27 07:00:00 4.7 10 Oeste 21 Oeste 0 -- -- 88
2019-01-27 06:00:00 4.3 3 Oeste 17 Oeste 0 -- -- 91
2019-01-27 05:00:00 2.8 5 Oeste 10 Oeste 0 -- -- 94
2019-01-27 04:00:00 3.3 7 Noroeste 16 Oeste 0 -- -- 92
2019-01-27 03:00:00 5.3 10 Oeste 20 Oeste 0 -- -- 89
2019-01-27 02:00:00 5.1 13 Noroeste 23 Noroeste 0 -- -- 89
2019-01-27 01:00:00 5.9 15 Noroeste 22 Oeste 0 -- -- 87
2019-01-27 00:00:00 5.4 11 Noroeste 16 Oeste 0 -- -- 88
2019-01-26 23:00:00 5.9 4 Oeste 14 Oeste 0 -- -- 85
2019-01-26 22:00:00 6.1 6 Oeste 14 Oeste 0 -- -- 84
2019-01-26 21:00:00 6.7 4 Sudoeste 9 Oeste 0 -- -- 81
2019-01-26 20:00:00 8 3 Sudoeste 12 Oeste 0 -- -- 75
2019-01-26 19:00:00 9.8 8 Oeste 17 Oeste 0 -- -- 68
2019-01-26 18:00:00 11.7 6 Oeste 17 Oeste 0 -- -- 63
2019-01-26 17:00:00 13.4 9 Oeste 27 Oeste 0 -- -- 60
2019-01-26 16:00:00 13.7 15 Oeste 29 Oeste 0 -- -- 61
2019-01-26 15:00:00 13.6 16 Oeste 31 Oeste 0 -- -- 62
2019-01-26 14:00:00 13.1 16 Oeste 32 Oeste 0 -- -- 63
2019-01-26 13:00:00 12 17 Oeste 33 Oeste 0 -- -- 67
2019-01-26 12:00:00 10.8 23 Oeste 38 Oeste 0 -- -- 72
2019-01-26 11:00:00 9.2 21 Oeste 39 Noroeste 0 -- -- 78
2019-01-26 10:00:00 8 24 Oeste 37 Oeste 0 -- -- 83
2019-01-26 09:00:00 6.2 18 Oeste 31 Oeste 0 -- -- 89
2019-01-26 08:00:00 5.8 12 Oeste 30 Oeste 0 -- -- 90
2019-01-26 07:00:00 6.4 18 Oeste 41 Oeste 0 -- -- 90
2019-01-26 06:00:00 6.5 23 Oeste 38 Oeste 0 -- -- 90
2019-01-26 05:00:00 6.8 19 Oeste 37 Noroeste 0 -- -- 87
2019-01-26 04:00:00 7.3 24 Oeste 44 Noroeste 0 -- -- 85
2019-01-26 03:00:00 7.2 24 Oeste 42 Oeste 0 -- -- 87
2019-01-26 02:00:00 7.4 18 Oeste 37 Oeste 0 -- -- 87
2019-01-26 01:00:00 7.4 17 Oeste 41 Oeste 0 -- -- 85
2019-01-26 00:00:00 7.9 23 Oeste 48 Noroeste 0 -- -- 83
2019-01-25 23:00:00 7.8 32 Noroeste 53 Noroeste 0 -- -- 84
2019-01-25 22:00:00 8.3 37 Oeste 52 Noroeste 0 -- -- 82
2019-01-25 21:00:00 8.7 31 Oeste 55 Oeste 0 -- -- 80
2019-01-25 20:00:00 9.9 33 Oeste 57 Oeste 0 -- -- 71
2019-01-25 19:00:00 9.9 26 Oeste 58 Oeste 0 -- -- 72
2019-01-25 18:00:00 11.6 21 Oeste 57 Oeste 0 -- -- 65
2019-01-25 17:00:00 13.8 40 Noroeste 66 Noroeste 0 -- -- 55
2019-01-25 16:00:00 14.8 39 Noroeste 57 Noroeste 0 -- -- 51
2019-01-25 15:00:00 15.4 22 Noroeste 56 Noroeste 0 -- -- 52
2019-01-25 14:00:00 15.1 34 Noroeste 59 Oeste 0 -- -- 52
2019-01-25 13:00:00 14.4 32 Noroeste 55 Noroeste 0 -- -- 56
2019-01-25 12:00:00 13.7 31 Noroeste 57 Noroeste 0 -- -- 59
2019-01-25 11:00:00 12.1 28 Oeste 54 Noroeste 0 -- -- 64
2019-01-25 10:00:00 11 28 Oeste 51 Noroeste 0 -- -- 64
2019-01-25 09:00:00 9.5 27 Oeste 47 Noroeste 0 -- -- 68
2019-01-25 08:00:00 8.7 24 Oeste 57 Noroeste 0 -- -- 72
2019-01-25 07:00:00 8.1 27 Oeste 47 Oeste 0 -- -- 76
2019-01-25 06:00:00 7.4 30 Oeste 50 Oeste 0 -- -- 80
2019-01-25 05:00:00 5 17 Oeste 42 Oeste 0 -- -- 86
2019-01-25 04:00:00 4.6 21 Oeste 41 Oeste 0 -- -- 83
2019-01-25 03:00:00 3.6 13 Oeste 31 Oeste 0 -- -- 81
2019-01-25 02:00:00 3.1 12 Oeste 30 Oeste 0 -- -- 79
2019-01-25 01:00:00 3.1 15 Oeste 38 Oeste 0 -- -- 75
2019-01-25 00:00:00 5.2 19 Oeste 36 Oeste 0 -- -- 62
2019-01-24 23:00:00 4.5 22 Noroeste 31 Noroeste 0 -- -- 63
2019-01-24 22:00:00 4.1 19 Noroeste 32 Oeste 0 -- -- 62
2019-01-24 21:00:00 4.1 13 Oeste 30 Oeste 0 -- -- 63
2019-01-24 20:00:00 3.6 7 Oeste 29 Noroeste 0 -- -- 62
2019-01-24 19:00:00 4.3 20 Oeste 36 Noroeste 0 -- -- 63
2019-01-24 18:00:00 5.6 23 Noroeste 38 Noroeste 0 -- -- 44
2019-01-24 17:00:00 7.8 28 Noroeste 41 Noroeste 0 -- -- 39
2019-01-24 16:00:00 8.5 26 Noroeste 46 Noroeste 0 -- -- 38
2019-01-24 15:00:00 8.8 25 Noroeste 42 Noroeste 0 -- -- 39
2019-01-24 14:00:00 8 25 Noroeste 37 Noroeste 0 -- -- 43
2019-01-24 13:00:00 7.4 19 Noroeste 33 Oeste 0 -- -- 43
2019-01-24 12:00:00 6.8 19 Noroeste 35 Oeste 0 -- -- 40
2019-01-24 11:00:00 5.3 14 Noroeste 26 Noroeste 0 -- -- 48
2019-01-24 10:00:00 3.2 13 Oeste 26 Oeste 0 -- -- 54
2019-01-24 09:00:00 2.9 13 Oeste 36 Noroeste 0 -- -- 53
2019-01-24 08:00:00 2.9 26 Noroeste 39 Oeste 0 -- -- 53
2019-01-24 07:00:00 3.4 28 Noroeste 46 Noroeste 0 -- -- 57
2019-01-24 06:00:00 3.1 29 Noroeste 48 Noroeste 0 -- -- 73
2019-01-24 05:00:00 3.6 30 Noroeste 52 Noroeste 0 -- -- 76
2019-01-24 04:00:00 3.8 27 Noroeste 42 Oeste 0 -- -- 81
2019-01-24 03:00:00 4.1 26 Oeste 49 Noroeste 0 -- -- 82
2019-01-24 02:00:00 4.1 20 Oeste 36 Oeste 0 -- -- 84
2019-01-24 01:00:00 4.2 23 Noroeste 62 Noroeste 0 -- -- 84
2019-01-24 00:00:00 5 30 Oeste 45 Oeste 0 -- -- 81